Time;durP1;ratioP1;P1;durP2;ratioP2;P2;SDS_P1;SDS_P2;PMS_P1;PMS_P2;Temp;Humidity;BMP_temperature;BMP_pressure;BME280_temperature;BME280_humidity;BME280_pressure;Samples;Min_cycle;Max_cycle;Signal;HPM_P1;HPM_P2
2021/06/09 00:01:40;;;;;;;26.17;23.43;;;15.60;89.10;;;;;;5053611;28;20060;-72
2021/06/09 00:04:06;;;;;;;26.10;22.20;;;15.60;90.10;;;;;;5053930;28;20040;-72
2021/06/09 00:06:32;;;;;;;23.83;21.43;;;15.60;89.60;;;;;;5054531;28;20573;-72
2021/06/09 00:08:57;;;;;;;20.87;17.10;;;15.60;89.80;;;;;;5052965;28;20442;-72
2021/06/09 00:11:23;;;;;;;24.60;21.67;;;15.60;90.00;;;;;;5053876;28;20131;-72
2021/06/09 00:13:49;;;;;;;27.77;24.80;;;15.60;90.00;;;;;;5053915;28;20132;-72
2021/06/09 00:16:19;;;;;;;25.03;21.63;;;15.60;90.10;;;;;;5052825;28;20057;-71
2021/06/09 00:18:44;;;;;;;29.13;26.03;;;15.60;90.10;;;;;;5054090;28;20104;-72
2021/06/09 00:21:11;;;;;;;27.40;24.50;;;15.60;90.10;;;;;;5053586;28;20478;-72
2021/06/09 00:23:37;;;;;;;28.57;25.17;;;15.60;90.10;;;;;;5053021;28;20045;-73
2021/06/09 00:26:05;;;;;;;27.47;24.53;;;15.60;90.10;;;;;;5053620;28;20405;-73
2021/06/09 00:28:32;;;;;;;28.70;24.60;;;15.50;90.10;;;;;;5053538;28;20053;-73
2021/06/09 00:30:59;;;;;;;28.63;24.83;;;15.50;90.20;;;;;;5052828;28;20057;-72
2021/06/09 00:33:25;;;;;;;27.80;24.17;;;15.50;90.20;;;;;;5053739;28;20052;-72
2021/06/09 00:35:57;;;;;;;28.43;25.40;;;15.40;90.30;;;;;;5053543;28;20049;-72
2021/06/09 00:38:23;;;;;;;27.33;24.38;;;15.40;90.30;;;;;;5052849;28;20049;-73
2021/06/09 00:40:48;;;;;;;29.87;25.40;;;15.40;90.40;;;;;;5053110;28;20490;-72
2021/06/09 00:43:17;;;;;;;23.67;21.27;;;15.40;90.40;;;;;;5053052;28;20537;-73
2021/06/09 00:45:46;;;;;;;30.03;26.13;;;15.40;90.40;;;;;;5052749;28;20049;-73
2021/06/09 00:48:13;;;;;;;28.57;25.47;;;15.30;90.50;;;;;;5051881;28;20072;-73
2021/06/09 00:50:45;;;;;;;21.93;19.63;;;15.30;90.50;;;;;;5052655;28;20068;-73
2021/06/09 00:55:57;;;;;;;29.23;25.60;;;15.30;90.50;;;;;;5053253;28;20112;-72
2021/06/09 00:58:24;;;;;;;25.57;22.80;;;15.30;90.60;;;;;;5052461;28;20080;-72
2021/06/09 01:00:51;;;;;;;33.30;28.90;;;15.20;90.60;;;;;;5053165;28;20045;-72
2021/06/09 01:03:17;;;;;;;29.97;25.57;;;15.10;90.80;;;;;;5052823;28;20045;-72
2021/06/09 01:05:43;;;;;;;28.83;25.73;;;15.10;90.90;;;;;;5052092;28;20115;-72
2021/06/09 01:08:33;;;;;;;25.30;21.43;;;15.10;91.00;;;;;;5038441;28;20055;-72
2021/06/09 01:11:00;;;;;;;28.02;24.42;;;15.10;91.00;;;;;;5052833;28;20103;-72
2021/06/09 01:13:29;;;;;;;29.77;24.67;;;15.10;91.10;;;;;;5052041;28;20399;-72
2021/06/09 01:15:56;;;;;;;25.50;22.07;;;15.00;91.20;;;;;;5052740;28;20441;-72
2021/06/09 01:18:23;;;;;;;28.90;25.70;;;15.00;91.30;;;;;;5052334;28;20094;-72
2021/06/09 01:20:49;;;;;;;25.80;22.50;;;15.00;91.40;;;;;;5052260;28;20056;-72
2021/06/09 01:23:17;;;;;;;23.20;20.20;;;15.00;91.40;;;;;;5052587;28;20045;-72
2021/06/09 01:25:44;;;;;;;29.90;25.87;;;15.00;91.40;;;;;;5051912;28;20474;-73
2021/06/09 01:28:09;;;;;;;31.80;25.93;;;14.90;91.50;;;;;;5052262;28;20077;-73
2021/06/09 01:30:37;;;;;;;31.30;26.17;;;14.90;91.60;;;;;;5052805;28;20044;-72
2021/06/09 01:33:03;;;;;;;30.87;25.73;;;14.90;91.70;;;;;;5051695;28;20057;-72
2021/06/09 01:35:29;;;;;;;32.13;25.87;;;14.90;91.70;;;;;;5052541;28;20131;-72
2021/06/09 01:37:56;;;;;;;29.93;24.93;;;14.90;91.70;;;;;;5052383;28;20053;-72
2021/06/09 01:40:25;;;;;;;28.67;25.43;;;14.80;91.80;;;;;;5051210;28;20056;-72
2021/06/09 01:42:55;;;;;;;30.05;25.90;;;14.80;91.90;;;;;;5052448;28;20060;-72
2021/06/09 01:45:38;;;;;;;29.33;24.33;;;14.70;91.90;;;;;;5052107;28;20056;-72
2021/06/09 01:48:08;;;;;;;26.90;24.00;;;14.70;92.00;;;;;;5051114;28;20546;-72
2021/06/09 01:50:36;;;;;;;31.93;25.67;;;14.70;92.00;;;;;;5052160;28;20045;-72
2021/06/09 01:53:03;;;;;;;28.93;24.40;;;14.80;92.00;;;;;;5051796;28;20079;-72
2021/06/09 01:55:31;;;;;;;32.00;26.77;;;14.70;92.10;;;;;;5051158;28;20081;-72
2021/06/09 01:57:57;;;;;;;29.63;25.03;;;14.70;92.20;;;;;;5052085;28;20068;-72
2021/06/09 02:00:27;;;;;;;27.97;24.03;;;14.70;92.20;;;;;;5051633;28;20092;-72
2021/06/09 02:02:59;;;;;;;28.20;24.57;;;14.70;92.20;;;;;;5051314;28;20076;-72
2021/06/09 02:05:30;;;;;;;28.92;25.05;;;14.70;92.20;;;;;;5052070;28;20402;-72
2021/06/09 02:07:59;;;;;;;28.07;24.10;;;14.70;92.10;;;;;;5051047;28;20207;-72
2021/06/09 02:10:28;;;;;;;29.43;25.70;;;14.70;92.20;;;;;;5051840;28;20474;-72
2021/06/09 02:12:57;;;;;;;25.83;22.87;;;14.70;92.30;;;;;;5051875;28;20049;-72
2021/06/09 02:15:24;;;;;;;24.20;21.53;;;14.70;92.30;;;;;;5051094;28;20071;-72
2021/06/09 02:18:07;;;;;;;26.67;22.83;;;14.70;92.30;;;;;;5051534;28;20516;-72
2021/06/09 02:20:35;;;;;;;27.23;23.50;;;14.70;92.20;;;;;;5051543;28;20041;-72
2021/06/09 02:23:01;;;;;;;27.87;24.27;;;14.60;92.30;;;;;;5050783;28;20045;-72
2021/06/09 02:25:27;;;;;;;29.90;24.93;;;14.60;92.30;;;;;;5051463;28;20095;-72
2021/06/09 02:27:53;;;;;;;25.43;22.53;;;14.60;92.30;;;;;;5051259;28;20406;-72
2021/06/09 02:30:20;;;;;;;26.43;22.60;;;14.60;92.30;;;;;;5050527;28;20053;-72
2021/06/09 02:33:06;;;;;;;28.40;24.77;;;14.60;92.30;;;;;;5036074;28;20056;-72
2021/06/09 02:35:39;;;;;;;31.30;24.77;;;14.60;92.30;;;;;;5051440;28;20059;-72
2021/06/09 02:38:06;;;;;;;28.40;23.50;;;14.60;92.70;;;;;;5050742;28;20068;-72
2021/06/09 02:40:33;;;;;;;31.43;25.17;;;14.50;92.30;;;;;;5051582;28;20063;-72
2021/06/09 02:42:59;;;;;;;29.67;25.00;;;14.50;92.40;;;;;;5050699;28;20131;-72
2021/06/09 02:45:26;;;;;;;28.57;23.83;;;14.50;92.40;;;;;;5051295;28;20048;-72
2021/06/09 02:47:55;;;;;;;26.90;24.03;;;14.50;92.40;;;;;;5051376;28;20053;-72
2021/06/09 02:50:34;;;;;;;20.83;18.60;;;14.50;92.50;;;;;;5050895;28;20408;-72
2021/06/09 02:53:22;;;;;;;27.63;24.30;;;14.50;92.40;;;;;;5050992;28;20098;-72
2021/06/09 02:56:11;;;;;;;26.80;22.10;;;14.50;92.50;;;;;;5050847;28;20485;-72
2021/06/09 02:58:45;;;;;;;27.30;23.10;;;14.50;92.50;;;;;;5050583;28;20052;-72
2021/06/09 03:01:25;;;;;;;24.23;21.67;;;14.50;92.50;;;;;;5050727;28;20063;-72
2021/06/09 03:04:24;;;;;;;23.77;19.93;;;14.50;92.40;;;;;;5051313;28;20056;-72
2021/06/09 03:06:52;;;;;;;22.43;20.03;;;14.50;92.20;;;;;;5050796;28;20486;-72
2021/06/09 03:09:37;;;;;;;19.50;17.10;;;14.50;92.10;;;;;;5050734;28;20060;-72
2021/06/09 03:12:34;;;;;;;25.23;21.90;;;14.50;92.10;;;;;;5052065;28;20057;-72
2021/06/09 03:15:11;;;;;;;25.03;21.23;;;14.50;91.90;;;;;;5053898;28;20049;-72
2021/06/09 03:17:54;;;;;;;24.77;21.13;;;14.50;91.90;;;;;;5052855;28;20179;-72
2021/06/09 03:20:32;;;;;;;23.00;20.57;;;14.50;91.90;;;;;;5052266;28;20055;-72
2021/06/09 03:23:36;;;;;;;24.63;21.23;;;14.50;91.90;;;;;;5052564;28;20048;-72
2021/06/09 03:26:47;;;;;;;23.20;19.23;;;14.50;92.00;;;;;;5038455;28;20087;-72
2021/06/09 03:29:31;;;;;;;24.38;21.60;;;14.50;91.90;;;;;;5051422;28;20397;-73
2021/06/09 03:32:05;;;;;;;21.23;18.97;;;14.40;91.90;;;;;;5052570;28;20075;-72
2021/06/09 03:34:42;;;;;;;26.10;22.13;;;14.50;91.90;;;;;;5050940;28;20172;-72
2021/06/09 03:37:09;;;;;;;25.23;22.60;;;14.40;92.00;;;;;;5054140;28;20052;-72
2021/06/09 03:39:40;;;;;;;23.73;21.13;;;14.40;92.00;;;;;;5053606;28;20040;-72
2021/06/09 03:42:09;;;;;;;23.10;20.70;;;14.40;92.10;;;;;;5053821;28;20130;-72
2021/06/09 03:44:38;;;;;;;24.47;21.83;;;14.40;92.10;;;;;;5054018;28;20091;-72
2021/06/09 03:47:06;;;;;;;25.23;21.87;;;14.40;92.10;;;;;;5053100;28;20057;-72
2021/06/09 03:49:33;;;;;;;23.80;20.70;;;14.50;92.10;;;;;;5051663;28;20131;-72
2021/06/09 03:52:00;;;;;;;24.60;21.40;;;14.50;92.10;;;;;;5054112;28;20136;-72
2021/06/09 03:54:46;;;;;;;24.17;20.38;;;14.50;92.20;;;;;;5053432;28;20048;-71
2021/06/09 03:57:33;;;;;;;23.17;20.30;;;14.50;92.10;;;;;;5039259;28;20107;-72
2021/06/09 04:00:00;;;;;;;24.40;19.30;;;14.40;92.10;;;;;;5053996;28;20053;-72
2021/06/09 04:02:28;;;;;;;26.90;22.13;;;14.40;92.10;;;;;;5053210;28;20403;-72
2021/06/09 04:04:57;;;;;;;24.00;21.03;;;14.40;92.10;;;;;;5054080;28;20071;-72
2021/06/09 04:07:25;;;;;;;23.60;21.10;;;14.40;92.10;;;;;;5053369;28;20076;-72
2021/06/09 04:09:52;;;;;;;25.00;22.30;;;14.50;92.10;;;;;;5053868;28;20045;-72
2021/06/09 04:12:20;;;;;;;24.27;21.67;;;14.50;92.10;;;;;;5053220;28;20088;-72
2021/06/09 04:14:48;;;;;;;26.77;22.83;;;14.50;92.00;;;;;;5053115;28;20049;-72
2021/06/09 04:17:18;;;;;;;22.97;20.53;;;14.60;92.00;;;;;;5053555;28;20049;-72
2021/06/09 04:19:48;;;;;;;25.27;20.97;;;14.60;92.00;;;;;;5053708;28;20068;-72
2021/06/09 04:22:14;;;;;;;22.43;19.50;;;14.70;92.00;;;;;;5052424;28;20049;-72
2021/06/09 04:24:41;;;;;;;23.00;19.17;;;14.70;92.10;;;;;;5053653;28;20051;-72
2021/06/09 04:27:16;;;;;;;21.77;19.47;;;14.70;92.10;;;;;;5053282;28;20053;-72
2021/06/09 04:29:44;;;;;;;23.60;20.90;;;14.80;92.10;;;;;;5052622;28;20375;-72
2021/06/09 04:32:09;;;;;;;25.27;20.93;;;14.90;92.10;;;;;;5052812;28;20444;-72
2021/06/09 04:34:55;;;;;;;23.73;21.33;;;15.00;92.10;;;;;;5053408;28;20132;-72
2021/06/09 04:37:32;;;;;;;23.10;20.13;;;15.10;91.90;;;;;;5052867;28;20361;-72
2021/06/09 04:39:58;;;;;;;23.00;20.50;;;15.10;91.90;;;;;;5053036;28;20045;-72
2021/06/09 04:42:24;;;;;;;24.07;21.47;;;15.10;92.00;;;;;;5053204;28;20052;-73
2021/06/09 04:44:50;;;;;;;23.87;21.33;;;15.10;92.20;;;;;;5052648;28;20037;-72
2021/06/09 04:47:15;;;;;;;23.20;20.70;;;15.20;92.10;;;;;;5053178;28;20068;-73
2021/06/09 04:49:43;;;;;;;20.73;18.53;;;15.30;91.90;;;;;;5052292;28;20082;-72
2021/06/09 04:52:11;;;;;;;21.10;18.83;;;15.30;91.90;;;;;;5053048;28;20068;-72
2021/06/09 04:54:40;;;;;;;20.50;18.33;;;15.30;91.90;;;;;;5053038;28;20041;-72
2021/06/09 04:57:07;;;;;;;24.20;21.37;;;15.30;91.90;;;;;;5052026;28;20068;-72
2021/06/09 04:59:33;;;;;;;21.20;19.03;;;15.30;91.90;;;;;;5053173;28;20053;-72
2021/06/09 05:01:59;;;;;;;20.83;18.73;;;15.30;91.90;;;;;;5052802;28;20110;-72
2021/06/09 05:04:25;;;;;;;21.33;19.03;;;15.30;91.80;;;;;;5051959;28;20394;-72
2021/06/09 05:06:50;;;;;;;19.80;17.73;;;15.30;91.80;;;;;;5053004;28;20095;-72
2021/06/09 05:09:17;;;;;;;16.93;15.17;;;15.30;91.90;;;;;;5052812;28;20051;-72
2021/06/09 05:12:01;;;;;;;20.93;18.73;;;15.40;91.90;;;;;;5051723;28;20052;-72
2021/06/09 05:14:36;;;;;;;15.70;14.07;;;15.50;92.00;;;;;;5053036;28;20057;-72
2021/06/09 05:17:04;;;;;;;19.20;16.73;;;15.60;91.90;;;;;;5052595;28;20049;-72
2021/06/09 05:19:31;;;;;;;19.80;17.73;;;15.70;91.80;;;;;;5052017;28;20078;-72
2021/06/09 05:22:14;;;;;;;20.17;18.07;;;15.80;91.50;;;;;;5052396;28;20127;-72
2021/06/09 05:24:42;;;;;;;19.77;17.50;;;15.80;91.40;;;;;;5052180;28;20052;-72
2021/06/09 05:27:12;;;;;;;19.37;17.43;;;15.80;91.30;;;;;;5052224;28;20064;-72
2021/06/09 05:29:44;;;;;;;19.17;17.17;;;15.80;91.30;;;;;;5052643;28;20468;-72
2021/06/09 05:32:11;;;;;;;;;;;15.80;91.30;;;;;;5052015;28;20110;-72
2021/06/09 05:34:40;;;;;;;14.97;13.37;;;15.80;91.10;;;;;;5051798;28;19968;-72
2021/06/09 05:37:10;;;;;;;16.33;14.67;;;15.90;91.00;;;;;;5052022;28;20461;-72
2021/06/09 05:39:38;;;;;;;16.27;14.70;;;15.90;90.70;;;;;;5051583;28;20100;-72
2021/06/09 05:42:10;;;;;;;16.80;15.00;;;16.00;90.50;;;;;;5052006;28;20049;-72
2021/06/09 05:44:40;;;;;;;15.55;12.75;;;16.10;90.40;;;;;;5052169;28;20394;-71
2021/06/09 05:47:06;;;;;;;16.10;14.50;;;16.20;90.20;;;;;;5051236;28;20100;-72
2021/06/09 05:49:32;;;;;;;16.57;14.80;;;16.20;90.10;;;;;;5051863;28;20061;-71
2021/06/09 05:51:58;;;;;;;16.57;14.87;;;16.30;90.10;;;;;;5051355;28;20187;-72
2021/06/09 05:54:24;;;;;;;15.30;13.80;;;16.30;90.10;;;;;;5051307;28;20128;-71
2021/06/09 05:56:51;;;;;;;15.57;14.07;;;16.30;90.10;;;;;;5051733;28;20549;-71
2021/06/09 05:59:20;;;;;;;15.40;13.37;;;16.40;90.10;;;;;;5051715;28;20053;-71
2021/06/09 06:01:46;;;;;;;14.33;13.00;;;16.50;90.10;;;;;;5051237;28;20052;-72
2021/06/09 06:04:13;;;;;;;14.87;13.20;;;16.70;89.40;;;;;;5051520;28;20381;-71
2021/06/09 06:06:39;;;;;;;14.20;12.80;;;16.80;88.70;;;;;;5051729;28;20113;-72
2021/06/09 06:09:05;;;;;;;13.03;11.70;;;16.80;88.60;;;;;;5050800;28;20080;-72
2021/06/09 06:11:33;;;;;;;14.17;12.70;;;16.80;88.10;;;;;;5051755;28;20106;-72
2021/06/09 06:14:04;;;;;;;13.90;12.47;;;16.80;88.20;;;;;;5050542;28;20045;-71
2021/06/09 06:16:30;;;;;;;13.80;12.40;;;16.90;88.40;;;;;;5051815;28;20170;-72
2021/06/09 06:18:59;;;;;;;12.67;11.30;;;17.00;87.90;;;;;;5051484;28;20045;-73
2021/06/09 06:21:26;;;;;;;12.77;11.43;;;17.00;87.10;;;;;;5051035;28;20174;-73
2021/06/09 06:23:54;;;;;;;11.93;10.73;;;17.00;86.70;;;;;;5051554;28;20474;-72
2021/06/09 06:26:21;;;;;;;12.07;10.27;;;17.10;86.90;;;;;;5050713;28;20128;-72
2021/06/09 06:28:48;;;;;;;10.73;9.73;;;17.10;86.60;;;;;;5050385;28;20136;-72
2021/06/09 06:31:20;;;;;;;10.93;9.43;;;17.20;86.10;;;;;;5051022;28;20073;-72
2021/06/09 06:33:47;;;;;;;10.73;9.50;;;17.20;85.40;;;;;;5049660;28;20045;-72
2021/06/09 06:36:16;;;;;;;9.90;8.83;;;17.30;85.00;;;;;;5049702;28;20053;-72
2021/06/09 06:38:44;;;;;;;9.80;8.47;;;17.40;84.60;;;;;;5050792;28;20470;-71
2021/06/09 06:41:10;;;;;;;11.70;10.50;;;17.40;84.50;;;;;;5049931;28;20048;-71
2021/06/09 06:43:38;;;;;;;10.60;9.60;;;17.50;84.00;;;;;;5050701;28;20044;-71
2021/06/09 06:46:05;;;;;;;12.77;10.07;;;17.60;83.40;;;;;;5047951;28;20103;-73
2021/06/09 06:48:33;;;;;;;10.70;9.67;;;17.70;83.20;;;;;;5050712;28;20494;-72
2021/06/09 06:51:00;;;;;;;11.27;9.17;;;17.80;82.70;;;;;;5049659;28;20460;-71
2021/06/09 06:53:26;;;;;;;9.90;8.87;;;17.90;82.30;;;;;;5048948;28;20438;-72
2021/06/09 06:55:58;;;;;;;10.05;9.05;;;17.90;82.20;;;;;;5051077;28;20049;-71
2021/06/09 06:58:29;;;;;;;9.43;8.10;;;18.00;82.00;;;;;;5050255;28;20059;-71
2021/06/09 07:00:55;;;;;;;9.53;8.53;;;18.10;81.90;;;;;;5051004;28;20132;-72
2021/06/09 07:03:22;;;;;;;10.23;8.50;;;18.20;81.50;;;;;;5050153;28;20052;-72
2021/06/09 07:05:50;;;;;;;9.37;8.30;;;18.30;81.10;;;;;;5050717;28;20045;-72
2021/06/09 07:08:16;;;;;;;9.80;8.57;;;18.40;80.70;;;;;;5050621;28;20077;-72
2021/06/09 07:10:50;;;;;;;10.53;8.07;;;18.50;80.60;;;;;;5050153;28;20052;-72
2021/06/09 07:13:16;;;;;;;9.93;8.57;;;18.60;80.20;;;;;;5050493;28;20061;-71
2021/06/09 07:15:45;;;;;;;10.57;9.57;;;18.70;80.40;;;;;;5050666;28;20796;-71
2021/06/09 07:18:11;;;;;;;9.93;8.93;;;18.70;79.90;;;;;;5049635;28;20049;-71
2021/06/09 07:20:37;;;;;;;8.70;7.90;;;18.80;79.50;;;;;;5050632;28;20045;-74
2021/06/09 07:23:02;;;;;;;10.63;8.70;;;18.90;79.10;;;;;;5050169;28;20037;-72
2021/06/09 07:25:34;;;;;;;9.70;8.80;;;19.00;78.40;;;;;;5049884;28;20056;-73
2021/06/09 07:28:04;;;;;;;10.13;9.07;;;19.10;77.90;;;;;;5050400;28;20080;-74
2021/06/09 07:30:34;;;;;;;10.80;9.23;;;19.20;77.10;;;;;;5050583;28;20049;-69
2021/06/09 07:33:05;;;;;;;10.30;9.30;;;19.30;76.70;;;;;;5049019;28;20081;-70
2021/06/09 07:35:34;;;;;;;10.77;9.67;;;19.40;75.90;;;;;;5050837;28;20140;-72
2021/06/09 07:38:12;;;;;;;11.13;9.17;;;19.50;75.50;;;;;;5050205;28;20056;-71
2021/06/09 07:40:41;;;;;;;8.23;7.33;;;19.50;75.60;;;;;;5049966;28;20059;-70
2021/06/09 07:43:12;;;;;;;11.17;8.90;;;19.60;75.00;;;;;;5032149;28;20125;-71
2021/06/09 07:45:40;;;;;;;10.43;9.15;;;19.70;75.60;;;;;;5049841;28;20041;-71
2021/06/09 07:48:07;;;;;;;10.97;9.80;;;19.70;75.20;;;;;;5047960;28;20053;-71
2021/06/09 07:50:59;;;;;;;10.67;9.50;;;19.80;75.20;;;;;;5047554;28;20458;-71
2021/06/09 07:53:31;;;;;;;10.30;9.30;;;19.90;74.70;;;;;;5039012;28;20057;-71
2021/06/09 07:55:57;;;;;;;10.53;9.43;;;19.90;74.40;;;;;;5048137;28;20052;-71
2021/06/09 07:58:28;;;;;;;11.17;8.80;;;20.00;73.90;;;;;;5050657;28;21229;-71
2021/06/09 08:00:57;;;;;;;10.45;9.40;;;20.10;74.00;;;;;;5051826;28;20045;-71
2021/06/09 08:03:25;;;;;;;10.97;9.97;;;20.20;73.90;;;;;;5053295;28;20063;-71
2021/06/09 08:05:52;;;;;;;10.77;9.57;;;20.30;74.30;;;;;;5054028;28;20051;-71
2021/06/09 08:08:18;;;;;;;10.47;8.70;;;20.40;73.60;;;;;;5052882;28;20063;-71
2021/06/09 08:10:44;;;;;;;11.73;10.33;;;20.50;73.70;;;;;;5053602;28;20076;-71
2021/06/09 08:13:10;;;;;;;11.73;10.23;;;20.50;73.00;;;;;;5053286;28;20087;-71
2021/06/09 08:15:37;;;;;;;9.87;8.90;;;20.70;72.80;;;;;;5053093;28;20075;-71
2021/06/09 08:18:12;;;;;;;10.68;9.52;;;20.80;72.90;;;;;;5053484;28;20458;-72
2021/06/09 08:20:54;;;;;;;9.90;8.93;;;21.10;72.60;;;;;;5052882;28;20638;-71
2021/06/09 08:23:19;;;;;;;9.67;8.70;;;21.20;72.30;;;;;;5053210;28;20470;-71
2021/06/09 08:25:45;;;;;;;12.20;10.77;;;21.30;72.20;;;;;;5053948;28;20053;-73
2021/06/09 08:28:11;;;;;;;12.60;11.40;;;21.40;71.00;;;;;;5052320;28;20494;-71
2021/06/09 08:30:36;;;;;;;13.23;10.43;;;21.50;70.20;;;;;;5053710;28;20099;-71
2021/06/09 08:33:03;;;;;;;12.43;11.20;;;21.60;69.80;;;;;;5053178;28;20053;-72
2021/06/09 08:35:29;;;;;;;11.37;10.20;;;21.70;69.50;;;;;;5052624;28;20124;-72
2021/06/09 08:37:55;;;;;;;12.93;11.50;;;21.80;68.70;;;;;;5053353;28;20076;-71
2021/06/09 08:40:23;;;;;;;10.30;9.33;;;21.90;68.60;;;;;;5053237;28;20045;-71
2021/06/09 08:42:50;;;;;;;12.43;9.93;;;22.00;68.40;;;;;;5052904;28;20400;-71
2021/06/09 08:45:16;;;;;;;10.93;9.60;;;22.20;69.00;;;;;;5053122;28;20401;-71
2021/06/09 08:47:42;;;;;;;10.82;9.75;;;22.40;67.80;;;;;;5052525;28;20496;-71
2021/06/09 08:50:10;;;;;;;10.63;9.52;;;22.50;66.70;;;;;;5051901;28;20057;-72
2021/06/09 08:52:45;;;;;;;10.55;9.45;;;22.60;66.40;;;;;;5053275;28;20084;-72
2021/06/09 08:55:11;;;;;;;14.15;9.77;;;22.60;65.40;;;;;;5052383;28;20052;-72
2021/06/09 08:57:38;;;;;;;10.77;9.25;;;22.70;65.40;;;;;;5052385;28;20052;-73
2021/06/09 09:00:06;;;;;;;11.07;9.73;;;22.60;64.90;;;;;;5052052;28;20053;-73
2021/06/09 09:02:32;;;;;;;10.27;9.05;;;22.70;64.50;;;;;;5053005;28;20199;-73
2021/06/09 09:05:06;;;;;;;9.63;8.73;;;22.70;64.10;;;;;;5051977;28;20131;-71
2021/06/09 09:07:31;;;;;;;9.70;7.68;;;22.80;63.80;;;;;;5052792;28;20512;-71
2021/06/09 09:09:58;;;;;;;11.05;9.95;;;22.90;64.00;;;;;;5050908;28;20070;-72
2021/06/09 09:12:25;;;;;;;10.38;9.20;;;23.00;63.60;;;;;;5052373;28;20053;-71
2021/06/09 09:14:50;;;;;;;10.43;9.35;;;23.10;62.90;;;;;;5053009;28;20051;-71
2021/06/09 09:17:16;;;;;;;10.90;9.80;;;23.20;62.40;;;;;;5051515;28;20064;-71
2021/06/09 09:19:45;;;;;;;11.20;10.10;;;23.40;62.10;;;;;;5052623;28;20061;-71
2021/06/09 09:22:21;;;;;;;9.43;8.48;;;23.60;61.60;;;;;;5052521;28;20449;-71
2021/06/09 09:24:51;;;;;;;10.85;9.35;;;23.80;61.70;;;;;;5051170;28;20049;-71
2021/06/09 09:27:31;;;;;;;9.73;8.65;;;23.90;61.80;;;;;;5052190;28;20462;-71
2021/06/09 09:30:08;;;;;;;10.63;9.55;;;24.10;62.00;;;;;;5051555;28;20063;-72
2021/06/09 09:32:37;;;;;;;11.00;9.80;;;24.30;60.10;;;;;;5051395;28;20099;-72
2021/06/09 09:35:14;;;;;;;11.70;10.50;;;24.30;59.50;;;;;;5052244;28;20068;-73
2021/06/09 09:37:40;;;;;;;11.73;10.50;;;24.30;57.70;;;;;;5052099;28;20037;-71
2021/06/09 09:40:18;;;;;;;10.80;9.73;;;24.40;57.50;;;;;;5051047;28;20056;-71
2021/06/09 09:42:48;;;;;;;11.88;10.57;;;24.50;56.10;;;;;;5052266;28;20041;-71
2021/06/09 09:45:23;;;;;;;11.38;9.27;;;24.50;56.10;;;;;;5051378;28;20124;-73
2021/06/09 09:48:17;;;;;;;10.90;9.88;;;24.60;55.90;;;;;;5052157;28;20053;-72
2021/06/09 09:50:50;;;;;;;12.43;11.32;;;24.60;55.40;;;;;;5052245;28;20076;-71
2021/06/09 09:53:21;;;;;;;12.38;10.27;;;24.70;54.80;;;;;;5051233;28;20422;-71
2021/06/09 09:56:16;;;;;;;;;;;24.80;55.20;;;;;;5052784;28;20045;-71
2021/06/09 09:59:01;;;;;;;12.07;10.88;;;24.80;55.20;;;;;;5050075;28;19921;-70
2021/06/09 10:01:29;;;;;;;12.05;10.95;;;24.90;55.40;;;;;;5052110;28;20144;-70
2021/06/09 10:03:57;;;;;;;10.95;9.85;;;25.00;54.80;;;;;;5052132;28;20053;-71
2021/06/09 10:06:27;;;;;;;12.55;11.27;;;25.10;53.90;;;;;;5051211;28;20053;-71
2021/06/09 10:08:56;;;;;;;13.70;10.98;;;25.10;53.50;;;;;;5051928;28;20041;-71
2021/06/09 10:11:23;;;;;;;11.73;10.52;;;25.10;53.80;;;;;;5050848;28;20132;-70
2021/06/09 10:13:50;;;;;;;12.48;11.38;;;25.00;54.10;;;;;;5050527;28;20124;-71
2021/06/09 10:16:28;;;;;;;13.73;11.60;;;25.10;53.80;;;;;;5050971;28;20049;-73
2021/06/09 10:19:05;;;;;;;12.65;11.35;;;25.30;52.80;;;;;;5050266;28;20067;-72
2021/06/09 10:21:44;;;;;;;12.88;11.65;;;25.30;52.30;;;;;;5049846;28;20073;-70
2021/06/09 10:24:10;;;;;;;11.20;10.07;;;25.20;52.80;;;;;;5050638;28;20052;-71
2021/06/09 10:26:46;;;;;;;10.15;9.15;;;25.20;53.30;;;;;;5051452;28;20053;-70
2021/06/09 10:29:19;;;;;;;13.35;12.05;;;25.10;53.10;;;;;;5050027;28;20084;-71
2021/06/09 10:31:58;;;;;;;12.00;10.82;;;25.00;52.80;;;;;;5051578;28;20158;-70
2021/06/09 10:34:31;;;;;;;13.20;11.98;;;24.80;53.20;;;;;;5050793;28;20247;-71
2021/06/09 10:36:59;;;;;;;14.55;13.15;;;24.60;53.20;;;;;;5051788;28;20056;-71
2021/06/09 10:39:28;;;;;;;12.50;11.32;;;24.60;53.20;;;;;;5051110;28;20478;-71
2021/06/09 10:42:02;;;;;;;13.25;11.85;;;24.50;53.20;;;;;;5050846;28;20049;-70
2021/06/09 10:44:35;;;;;;;12.27;10.98;;;24.40;53.50;;;;;;5051669;28;20045;-71
2021/06/09 10:47:02;;;;;;;11.98;10.77;;;24.40;53.80;;;;;;5050917;28;20549;-71
2021/06/09 10:49:34;;;;;;;13.00;11.70;;;24.50;54.30;;;;;;5050862;28;20044;-71
2021/06/09 10:52:01;;;;;;;15.80;14.30;;;24.60;54.70;;;;;;5051179;28;20045;-70
2021/06/09 10:54:27;;;;;;;13.80;12.50;;;24.70;54.00;;;;;;5051647;28;20056;-71
2021/06/09 10:56:55;;;;;;;13.90;12.40;;;24.90;54.00;;;;;;5050775;28;20053;-72
2021/06/09 10:59:31;;;;;;;15.32;13.68;;;25.10;53.60;;;;;;5050853;28;20489;-71
2021/06/09 11:02:05;;;;;;;14.88;13.38;;;25.30;53.20;;;;;;5033616;28;20091;-71
2021/06/09 11:04:43;;;;;;;14.02;12.63;;;25.40;53.00;;;;;;5050642;28;20053;-71
2021/06/09 11:07:29;;;;;;;13.15;11.85;;;25.50;53.30;;;;;;5050747;28;20394;-71
2021/06/09 11:10:04;;;;;;;12.40;11.20;;;25.60;53.20;;;;;;5049888;28;20470;-71
2021/06/09 11:12:37;;;;;;;13.85;12.38;;;25.60;53.40;;;;;;5050827;28;20052;-71
2021/06/09 11:15:10;;;;;;;15.20;13.70;;;25.60;53.00;;;;;;5050580;28;20095;-71
2021/06/09 11:17:40;;;;;;;14.45;12.75;;;25.60;52.50;;;;;;5050298;28;20076;-70
2021/06/09 11:20:17;;;;;;;12.60;11.30;;;25.60;52.60;;;;;;5050946;28;20152;-70
2021/06/09 11:22:54;;;;;;;14.32;11.57;;;25.60;52.70;;;;;;5050934;28;20551;-70
2021/06/09 11:25:35;;;;;;;15.50;12.68;;;25.60;53.10;;;;;;5050462;28;20049;-70
2021/06/09 11:28:08;;;;;;;14.10;12.80;;;25.60;52.20;;;;;;5050436;28;20103;-70
2021/06/09 11:30:33;;;;;;;13.85;12.55;;;25.60;52.10;;;;;;5049893;28;20481;-70
2021/06/09 11:33:05;;;;;;;14.60;13.38;;;25.50;52.70;;;;;;5051422;28;20045;-70
2021/06/09 11:35:41;;;;;;;13.10;11.88;;;25.60;52.80;;;;;;5055004;28;20131;-70
2021/06/09 11:38:13;;;;;;;14.50;13.00;;;25.80;52.40;;;;;;5053800;28;20068;-70
2021/06/09 11:41:02;;;;;;;14.40;13.05;;;26.00;52.50;;;;;;5037260;28;20163;-70
2021/06/09 11:43:44;;;;;;;13.70;12.40;;;25.90;52.10;;;;;;5054930;28;20135;-70
2021/06/09 11:46:29;;;;;;;14.93;13.43;;;25.80;51.60;;;;;;5053813;28;20056;-70
2021/06/09 11:49:14;;;;;;;16.17;14.63;;;25.60;51.30;;;;;;5054802;28;20076;-70
2021/06/09 11:51:57;;;;;;;15.80;14.25;;;25.50;51.50;;;;;;5053772;28;20045;-70
2021/06/09 11:54:27;;;;;;;15.50;14.00;;;25.30;51.50;;;;;;5054462;28;20117;-70
2021/06/09 11:57:18;;;;;;;15.13;13.70;;;25.20;52.20;;;;;;5054445;28;20099;-69
2021/06/09 11:59:46;;;;;;;16.05;14.55;;;25.10;52.60;;;;;;5040184;28;20048;-70
2021/06/09 12:02:24;;;;;;;18.05;16.25;;;24.90;52.90;;;;;;5054233;28;20052;-70
2021/06/09 12:04:54;;;;;;;17.40;15.20;;;24.80;53.00;;;;;;5054546;28;20450;-69
2021/06/09 12:07:20;;;;;;;;;;;24.70;53.10;;;;;;5053849;28;20071;-70
2021/06/09 12:09:48;;;;;;;16.38;14.88;;;24.60;53.40;;;;;;5054036;28;20282;-70
2021/06/09 12:12:18;;;;;;;15.68;14.00;;;24.50;53.90;;;;;;5053683;28;20053;-70
2021/06/09 12:14:46;;;;;;;20.23;18.13;;;24.40;54.10;;;;;;5053544;28;20148;-71
2021/06/09 12:17:21;;;;;;;16.80;15.20;;;24.50;53.80;;;;;;5053967;28;20053;-70
2021/06/09 12:20:08;;;;;;;17.10;15.50;;;24.60;53.80;;;;;;5053216;28;20048;-70
2021/06/09 12:22:39;;;;;;;17.00;15.45;;;24.90;53.80;;;;;;5054049;28;20057;-70
2021/06/09 12:25:09;;;;;;;16.10;14.45;;;25.10;53.30;;;;;;5053848;28;20470;-70
2021/06/09 12:27:39;;;;;;;17.20;15.70;;;25.40;53.10;;;;;;5053419;28;20089;-70
2021/06/09 12:30:08;;;;;;;15.00;13.60;;;25.70;52.80;;;;;;5054042;28;20072;-70
2021/06/09 12:32:36;;;;;;;15.90;14.48;;;26.00;52.00;;;;;;5054074;28;20048;-70
2021/06/09 12:35:10;;;;;;;15.85;14.38;;;26.30;51.60;;;;;;5052838;28;20047;-71
2021/06/09 12:37:42;;;;;;;16.15;14.13;;;26.50;50.70;;;;;;5054100;28;20048;-71
2021/06/09 12:40:17;;;;;;;18.60;16.75;;;26.70;50.40;;;;;;5053413;28;20048;-71
2021/06/09 12:43:05;;;;;;;16.80;15.20;;;26.90;49.10;;;;;;5053088;28;20130;-70
2021/06/09 12:45:34;;;;;;;16.88;15.40;;;26.80;49.10;;;;;;5053485;28;20044;-71
2021/06/09 12:48:12;;;;;;;15.90;14.48;;;26.60;49.50;;;;;;5052744;28;20055;-70
2021/06/09 12:50:40;;;;;;;17.80;16.10;;;26.30;49.90;;;;;;5053799;28;20375;-70
2021/06/09 12:53:17;;;;;;;16.83;15.38;;;26.10;49.60;;;;;;5053484;28;20049;-70